Time;durP1;ratioP1;P1;durP2;ratioP2;P2;SDS_P1;SDS_P2;PMS_P1;PMS_P2;Temp;Humidity;BMP_temperature;BMP_pressure;BME280_temperature;BME280_humidity;BME280_pressure;Samples;Min_cycle;Max_cycle;Signal;HPM_P1;HPM_P2
2022/02/06 00:00:46;;;;;;;;;;;;;;;27.95;19.10;101133.63;5075768;28;974;-24
2022/02/06 00:03:13;;;;;;;;;;;;;;;28.26;19.05;101145.38;5070666;28;853;-23
2022/02/06 00:05:38;;;;;;;;;;;;;;;28.39;19.06;101144.81;5076609;28;805;-24
2022/02/06 00:08:10;;;;;;;;;;;;;;;28.41;18.88;101144.63;5075970;28;1930;-24
2022/02/06 00:10:36;;;;;;;;;;;;;;;28.41;18.45;101153.56;5075457;28;849;-24
2022/02/06 00:13:01;;;;;;;;;;;;;;;27.56;19.72;101164.22;5075957;28;878;-24
2022/02/06 00:15:27;;;;;;;;;;;;;;;27.40;19.96;101171.38;5073101;28;879;-24
2022/02/06 00:17:52;;;;;;;;;;;;;;;28.09;19.14;101172.53;5076479;28;817;-24
2022/02/06 00:20:18;;;;;;;;;;;;;;;28.70;18.70;101164.66;5076130;28;825;-24
2022/02/06 00:22:56;;;;;;;;;;;;;;;28.67;18.40;101168.59;5076485;28;864;-24
2022/02/06 00:25:30;;;;;;;;;;;;;;;28.46;18.78;101182.81;5076322;28;762;-24
2022/02/06 00:33:24;;;;;;;;;;;;;;;28.51;18.57;101193.91;5075728;28;1249;-24
2022/02/06 00:41:29;;;;;;;;;;;;;;;28.09;18.89;101196.06;5073539;28;627;-24
2022/02/06 00:43:54;;;;;;;;;;;;;;;28.07;19.07;101185.44;5074373;28;824;-24
2022/02/06 00:46:21;;;;;;;;;;;;;;;28.12;19.14;101201.09;5074540;28;738;-24
2022/02/06 00:48:52;;;;;;;;;;;;;;;28.29;19.09;101199.16;5075886;28;1988;-24
2022/02/06 00:51:30;;;;;;;;;;;;;;;28.41;18.90;101201.47;5075840;28;852;-24
2022/02/06 00:53:56;;;;;;;;;;;;;;;28.58;18.62;101210.25;5070598;28;832;-24
2022/02/06 00:56:21;;;;;;;;;;;;;;;28.68;18.52;101221.69;5075595;28;797;-24
2022/02/06 00:58:46;;;;;;;;;;;;;;;28.73;18.65;101227.41;5076118;28;861;-24
2022/02/06 01:01:12;;;;;;;;;;;;;;;28.79;18.31;101239.38;5075395;28;837;-24
2022/02/06 01:03:37;;;;;;;;;;;;;;;28.87;18.33;101224.91;5075802;28;830;-24
2022/02/06 01:06:03;;;;;;;;;;;;;;;29.07;17.92;101227.13;5073459;28;936;-24
2022/02/06 01:08:28;;;;;;;;;;;;;;;28.26;18.87;101228.41;5076245;28;1897;-24
2022/02/06 01:10:54;;;;;;;;;;;;;;;27.52;19.70;101231.28;5075316;28;861;-24
2022/02/06 01:13:36;;;;;;;;;;;;;;;27.89;19.21;101231.66;5075510;28;769;-24
2022/02/06 01:16:12;;;;;;;;;;;;;;;28.25;18.72;101235.69;5075656;28;859;-24
2022/02/06 01:18:48;;;;;;;;;;;;;;;28.32;18.97;101233.09;5069926;28;833;-24
2022/02/06 01:21:28;;;;;;;;;;;;;;;28.39;18.68;101223.28;5077022;28;758;-24
2022/02/06 01:24:02;;;;;;;;;;;;;;;28.46;18.68;101226.13;5079475;28;821;-24
2022/02/06 01:26:38;;;;;;;;;;;;;;;28.52;18.64;101221.81;5079006;28;979;-24
2022/02/06 01:29:12;;;;;;;;;;;;;;;28.70;18.21;101227.78;5078979;28;894;-24
2022/02/06 01:34:10;;;;;;;;;;;;;;;28.82;18.06;101238.16;5079344;28;781;-24
2022/02/06 01:37:41;;;;;;;;;;;;;;;28.91;18.16;101241.66;5072614;28;825;-24
2022/02/06 01:39:50;;;;;;;;;;;;;;;28.90;18.17;101246.22;5064661;28;1193;-24
2022/02/06 01:42:26;;;;;;;;;;;;;;;27.85;19.23;101246.53;5078640;28;884;-24
2022/02/06 02:00:57;;;;;;;;;;;;;;;28.53;18.75;101280.38;5078380;28;799;-24
2022/02/06 02:03:47;;;;;;;;;;;;;;;28.57;18.59;101274.41;5078573;28;768;-24
2022/02/06 02:06:45;;;;;;;;;;;;;;;28.65;18.62;101281.63;5078513;28;916;-23
2022/02/06 02:09:36;;;;;;;;;;;;;;;28.79;18.27;101284.56;5076878;28;1438;-24
2022/02/06 02:47:37;;;;;;;;;;;;;;;28.71;18.09;101321.50;5077064;28;1902;-24
2022/02/06 02:50:10;;;;;;;;;;;;;;;28.83;18.01;101323.78;5076508;28;880;-24
2022/02/06 02:57:58;;;;;;;;;;;;;;;28.15;18.73;101332.44;5077860;28;693;-24
2022/02/06 03:00:35;;;;;;;;;;;;;;;27.49;19.43;101339.72;5073272;28;823;-24
2022/02/06 03:03:12;;;;;;;;;;;;;;;27.88;19.05;101335.41;5077518;28;865;-24
2022/02/06 03:05:37;;;;;;;;;;;;;;;28.03;18.97;101343.63;5077396;28;817;-24
2022/02/06 03:08:05;;;;;;;;;;;;;;;28.06;19.06;101348.69;5077045;28;1886;-24
2022/02/06 03:10:31;;;;;;;;;;;;;;;28.02;18.92;101352.78;5077211;28;743;-24
2022/02/06 03:12:56;;;;;;;;;;;;;;;28.05;18.83;101351.56;5076859;28;848;-24
2022/02/06 03:15:36;;;;;;;;;;;;;;;28.17;19.02;101355.59;5072805;28;901;-24
2022/02/06 03:18:04;;;;;;;;;;;;;;;28.18;18.89;101365.38;5077046;28;1237;-24
2022/02/06 03:20:30;;;;;;;;;;;;;;;28.29;18.87;101366.88;5077417;28;830;-24
2022/02/06 03:23:00;;;;;;;;;;;;;;;28.40;18.77;101371.06;5076708;28;844;-24
2022/02/06 03:25:25;;;;;;;;;;;;;;;28.55;18.70;101373.03;5073323;28;845;-24
2022/02/06 03:27:51;;;;;;;;;;;;;;;28.63;18.55;101377.56;5077122;28;1898;-24
2022/02/06 03:30:16;;;;;;;;;;;;;;;28.68;18.48;101367.88;5074644;28;954;-24
2022/02/06 03:32:41;;;;;;;;;;;;;;;28.73;18.28;101375.44;5076846;28;1093;-24
2022/02/06 03:35:07;;;;;;;;;;;;;;;28.71;18.21;101378.34;5076769;28;829;-24
2022/02/06 03:37:32;;;;;;;;;;;;;;;28.81;18.21;101385.41;5073511;28;937;-24
2022/02/06 03:40:00;;;;;;;;;;;;;;;28.54;18.42;101396.56;5073179;28;800;-24
2022/02/06 03:42:33;;;;;;;;;;;;;;;27.76;19.27;101389.00;5076378;28;828;-24
2022/02/06 03:45:04;;;;;;;;;;;;;;;27.61;19.52;101395.06;5069438;28;839;-24
2022/02/06 03:47:45;;;;;;;;;;;;;;;27.98;19.28;101408.22;5076585;28;1910;-24
2022/02/06 03:50:12;;;;;;;;;;;;;;;28.06;18.79;101413.59;5075779;28;908;-24
2022/02/06 03:52:44;;;;;;;;;;;;;;;27.95;19.12;101411.28;5076253;28;794;-24
2022/02/06 03:55:17;;;;;;;;;;;;;;;28.04;18.97;101404.00;5076219;28;861;-24
2022/02/06 03:57:42;;;;;;;;;;;;;;;28.02;19.10;101406.88;5076756;28;789;-24
2022/02/06 04:00:08;;;;;;;;;;;;;;;28.14;18.79;101417.31;5065103;28;856;-24
2022/02/06 04:02:33;;;;;;;;;;;;;;;28.27;18.94;101416.75;5076298;28;1031;-23
2022/02/06 04:04:59;;;;;;;;;;;;;;;28.27;18.88;101420.31;5076204;28;846;-24
2022/02/06 04:07:24;;;;;;;;;;;;;;;28.36;18.54;101424.69;5076061;28;1961;-24
2022/02/06 04:09:53;;;;;;;;;;;;;;;28.47;18.76;101428.91;5076170;28;805;-24
2022/02/06 04:12:20;;;;;;;;;;;;;;;28.87;18.24;101425.28;5076045;28;880;-24
2022/02/06 04:14:57;;;;;;;;;;;;;;;29.29;17.89;101428.59;5070762;28;1150;-24
2022/02/06 04:17:25;;;;;;;;;;;;;;;29.32;17.90;101432.81;5068041;28;1065;-23
2022/02/06 04:19:53;;;;;;;;;;;;;;;28.85;18.44;101428.19;5076286;28;841;-23
2022/02/06 04:22:19;;;;;;;;;;;;;;;28.85;18.42;101427.34;5075990;28;821;-24
2022/02/06 04:24:44;;;;;;;;;;;;;;;28.96;18.18;101435.03;5075953;28;968;-24
2022/02/06 04:27:10;;;;;;;;;;;;;;;28.84;18.26;101442.72;5076013;28;1898;-23
2022/02/06 04:29:35;;;;;;;;;;;;;;;28.94;18.24;101436.25;5074221;28;1019;-25
2022/02/06 04:32:02;;;;;;;;;;;;;;;28.99;18.38;101439.31;5076081;28;1422;-23
2022/02/06 04:34:29;;;;;;;;;;;;;;;28.98;18.33;101444.91;5075764;28;1051;-23
2022/02/06 04:37:08;;;;;;;;;;;;;;;28.81;18.47;101447.69;5076154;28;837;-25
2022/02/06 05:11:22;;;;;;;;;;;;;;;27.67;16.40;101487.31;5079515;28;721;-24
2022/02/06 05:30:09;;;;;;;;;;;;;;;28.88;16.73;101501.97;5078762;28;906;-23
2022/02/06 05:32:40;;;;;;;;;;;;;;;28.74;16.78;101499.00;5078336;28;1027;-23
2022/02/06 05:35:06;;;;;;;;;;;;;;;28.48;17.21;101498.22;5079162;28;836;-24
2022/02/06 05:37:31;;;;;;;;;;;;;;;28.23;17.76;101500.13;5079637;28;834;-25
2022/02/06 05:39:56;;;;;;;;;;;;;;;27.85;18.10;101500.69;5078667;28;1522;-26
2022/02/06 05:42:22;;;;;;;;;;;;;;;27.91;18.12;101501.88;5079145;28;986;-25
2022/02/06 05:44:53;;;;;;;;;;;;;;;27.79;15.90;101504.06;5078350;28;867;-25
2022/02/06 05:47:19;;;;;;;;;;;;;;;27.62;15.36;101499.50;5078956;28;1967;-25
2022/02/06 05:49:44;;;;;;;;;;;;;;;27.94;14.96;101504.22;5078605;28;896;-25
2022/02/06 05:52:09;;;;;;;;;;;;;;;27.73;15.30;101508.28;5078978;28;1065;-25
2022/02/06 05:54:35;;;;;;;;;;;;;;;27.96;15.80;101502.22;5078706;28;849;-24
2022/02/06 05:57:00;;;;;;;;;;;;;;;27.77;17.47;101504.25;5079152;28;833;-25
2022/02/06 05:59:25;;;;;;;;;;;;;;;27.87;17.58;101507.63;5076750;28;844;-24
2022/02/06 06:01:51;;;;;;;;;;;;;;;27.27;18.02;101506.88;5078011;28;805;-24
2022/02/06 06:04:16;;;;;;;;;;;;;;;26.57;18.88;101503.38;5079335;28;780;-37
2022/02/06 06:06:42;;;;;;;;;;;;;;;26.59;18.93;101499.50;5078476;28;814;-37
2022/02/06 06:09:07;;;;;;;;;;;;;;;26.71;19.29;101507.34;5077815;28;1901;-40
2022/02/06 06:11:32;;;;;;;;;;;;;;;26.69;19.44;101502.09;5067962;28;853;-40
2022/02/06 06:13:58;;;;;;;;;;;;;;;26.30;19.64;101508.75;5077221;28;942;-38
2022/02/06 06:16:23;;;;;;;;;;;;;;;26.21;20.15;101505.16;5078802;28;786;-39
2022/02/06 06:18:48;;;;;;;;;;;;;;;26.34;20.27;101512.03;5078171;28;845;-38
2022/02/06 06:21:14;;;;;;;;;;;;;;;26.22;20.71;101514.09;5078493;28;801;-38
2022/02/06 06:23:43;;;;;;;;;;;;;;;26.19;20.49;101530.59;5077889;28;849;-40
2022/02/06 06:26:11;;;;;;;;;;;;;;;26.05;20.33;101530.16;5078267;28;855;-42
2022/02/06 06:28:36;;;;;;;;;;;;;;;26.09;20.45;101544.19;5077847;28;1890;-41
2022/02/06 06:31:01;;;;;;;;;;;;;;;26.23;20.38;101540.06;5077913;28;902;-38
2022/02/06 06:33:27;;;;;;;;;;;;;;;26.07;20.75;101540.78;5077635;28;1083;-47
2022/02/06 06:35:53;;;;;;;;;;;;;;;26.36;20.26;101543.22;5074799;28;875;-46
2022/02/06 06:38:18;;;;;;;;;;;;;;;26.18;20.54;101545.94;5076326;28;841;-44
2022/02/06 06:40:43;;;;;;;;;;;;;;;26.35;20.49;101548.78;5077891;28;788;-47
2022/02/06 06:43:09;;;;;;;;;;;;;;;26.17;20.79;101552.34;5077709;28;1111;-46
2022/02/06 06:45:34;;;;;;;;;;;;;;;25.99;20.75;101552.38;5077584;28;927;-54
2022/02/06 06:47:59;;;;;;;;;;;;;;;25.68;21.10;101567.94;5077542;28;1906;-49
2022/02/06 06:50:32;;;;;;;;;;;;;;;25.58;21.28;101569.81;5077205;28;895;-53
2022/02/06 06:52:57;;;;;;;;;;;;;;;25.52;21.58;101573.97;5077807;28;792;-53
2022/02/06 06:55:23;;;;;;;;;;;;;;;25.66;21.34;101569.91;5077664;28;777;-44
2022/02/06 06:57:55;;;;;;;;;;;;;;;25.80;21.14;101565.84;5077630;28;833;-53
2022/02/06 07:02:46;;;;;;;;;;;;;;;25.74;21.40;101561.06;5073311;28;818;-46
2022/02/06 07:05:11;;;;;;;;;;;;;;;26.02;21.47;101555.59;5077226;28;864;-45
2022/02/06 07:07:37;;;;;;;;;;;;;;;26.49;21.52;101556.28;5076808;28;1957;-52
2022/02/06 07:10:02;;;;;;;;;;;;;;;26.43;20.51;101559.63;5077199;28;848;-47
2022/02/06 07:12:28;;;;;;;;;;;;;;;26.12;20.91;101566.28;5077364;28;809;-52
2022/02/06 07:14:53;;;;;;;;;;;;;;;26.08;21.03;101566.75;5076546;28;951;-51
2022/02/06 07:17:19;;;;;;;;;;;;;;;26.16;21.13;101567.66;5076825;28;821;-53
2022/02/06 07:19:44;;;;;;;;;;;;;;;26.22;20.80;101565.34;5077322;28;844;-44
2022/02/06 07:22:13;;;;;;;;;;;;;;;26.17;21.00;101573.91;5076855;28;833;-45
2022/02/06 07:24:38;;;;;;;;;;;;;;;26.11;21.22;101567.28;5076879;28;852;-52
2022/02/06 07:27:15;;;;;;;;;;;;;;;26.02;21.04;101569.09;5072984;28;1889;-49
2022/02/06 07:29:41;;;;;;;;;;;;;;;26.03;21.04;101568.06;5076742;28;1529;-51
2022/02/06 07:32:07;;;;;;;;;;;;;;;25.88;21.20;101553.44;5076431;28;1083;-48
2022/02/06 07:34:32;;;;;;;;;;;;;;;25.78;21.50;101562.47;5077013;28;876;-49
2022/02/06 07:36:57;;;;;;;;;;;;;;;26.47;21.03;101565.53;5076921;28;733;-48
2022/02/06 07:39:23;;;;;;;;;;;;;;;26.92;20.43;101560.91;5076093;28;896;-53
2022/02/06 07:41:48;;;;;;;;;;;;;;;27.05;20.04;101568.56;5076554;28;852;-52
2022/02/06 07:44:13;;;;;;;;;;;;;;;27.35;19.98;101560.06;5076758;28;914;-50
2022/02/06 07:46:45;;;;;;;;;;;;;;;27.05;20.15;101563.19;5076678;28;765;-49
2022/02/06 07:49:10;;;;;;;;;;;;;;;27.31;19.84;101562.25;5076650;28;1883;-51
2022/02/06 07:51:35;;;;;;;;;;;;;;;27.16;20.22;101564.72;5076461;28;910;-48
2022/02/06 07:54:01;;;;;;;;;;;;;;;26.99;20.22;101569.19;5072075;28;871;-55
2022/02/06 07:56:27;;;;;;;;;;;;;;;26.80;20.46;101571.13;5076377;28;877;-46
2022/02/06 07:58:52;;;;;;;;;;;;;;;26.61;20.66;101564.13;5076485;28;831;-49
2022/02/06 08:01:17;;;;;;;;;;;;;;;26.56;20.63;101561.06;5076209;28;868;-54
2022/02/06 08:03:43;;;;;;;;;;;;;;;26.61;20.62;101556.03;5076456;28;950;-54
2022/02/06 08:06:10;;;;;;;;;;;;;;;26.62;20.51;101560.41;5069277;28;793;-51
2022/02/06 08:08:35;;;;;;;;;;;;;;;26.59;20.63;101560.72;5076181;28;1947;-55
2022/02/06 08:11:02;;;;;;;;;;;;;;;26.62;20.83;101561.25;5076424;28;840;-54
2022/02/06 08:13:52;;;;;;;;;;;;;;;26.58;20.69;101561.72;5076395;28;848;-50
2022/02/06 08:16:15;;;;;;;;;;;;;;;26.61;20.89;101558.72;5070508;28;1539;-48
2022/02/06 08:18:41;;;;;;;;;;;;;;;26.70;20.54;101557.75;5076285;28;853;-49
2022/02/06 08:21:07;;;;;;;;;;;;;;;26.53;20.78;101554.09;5076007;28;821;-51
2022/02/06 08:23:32;;;;;;;;;;;;;;;26.46;20.88;101553.91;5076370;28;785;-46
2022/02/06 08:25:58;;;;;;;;;;;;;;;26.33;20.97;101548.06;5076201;28;860;-55
2022/02/06 08:28:23;;;;;;;;;;;;;;;26.43;21.11;101547.97;5076079;28;1897;-50
2022/02/06 08:30:48;;;;;;;;;;;;;;;26.40;21.07;101547.31;5075404;28;906;-48
2022/02/06 08:33:14;;;;;;;;;;;;;;;26.28;20.41;101549.38;5075790;28;1180;-48
2022/02/06 08:35:39;;;;;;;;;;;;;;;25.73;20.92;101547.75;5075944;28;801;-50
2022/02/06 08:38:04;;;;;;;;;;;;;;;25.71;21.46;101547.06;5076209;28;849;-51
2022/02/06 08:40:31;;;;;;;;;;;;;;;25.99;21.39;101547.81;5076189;28;825;-49
2022/02/06 08:42:57;;;;;;;;;;;;;;;26.10;21.15;101532.38;5075474;28;797;-49
2022/02/06 08:45:23;;;;;;;;;;;;;;;26.33;21.07;101535.44;5073095;28;882;-45
2022/02/06 08:47:50;;;;;;;;;;;;;;;26.21;20.99;101534.81;5075718;28;1976;-51
2022/02/06 08:50:15;;;;;;;;;;;;;;;26.36;20.85;101531.59;5075862;28;761;-47
2022/02/06 08:52:41;;;;;;;;;;;;;;;26.40;21.00;101531.13;5076030;28;832;-48
2022/02/06 08:55:08;;;;;;;;;;;;;;;26.39;21.08;101528.59;5076092;28;789;-46
2022/02/06 08:57:34;;;;;;;;;;;;;;;26.26;21.21;101524.41;5068974;28;860;-45
2022/02/06 08:59:59;;;;;;;;;;;;;;;26.31;21.20;101525.81;5075884;28;1458;-45
2022/02/06 09:02:25;;;;;;;;;;;;;;;26.28;21.22;101529.66;5076093;28;794;-48
2022/02/06 09:04:50;;;;;;;;;;;;;;;26.20;21.46;101533.13;5075219;28;825;-45
2022/02/06 09:07:16;;;;;;;;;;;;;;;26.12;21.51;101539.31;5075286;28;1968;-46
2022/02/06 09:09:47;;;;;;;;;;;;;;;26.27;21.14;101533.34;5073021;28;849;-49
2022/02/06 09:12:13;;;;;;;;;;;;;;;26.23;21.25;101527.44;5075596;28;757;-50
2022/02/06 09:14:38;;;;;;;;;;;;;;;26.37;21.21;101534.13;5069647;28;897;-45
2022/02/06 09:17:03;;;;;;;;;;;;;;;26.40;21.15;101523.03;5075565;28;820;-45
2022/02/06 09:19:29;;;;;;;;;;;;;;;26.42;20.99;101517.47;5075712;28;826;-43
2022/02/06 09:21:55;;;;;;;;;;;;;;;26.51;21.05;101529.13;5074937;28;805;-46
2022/02/06 09:24:20;;;;;;;;;;;;;;;26.08;21.21;101515.50;5075753;28;880;-44
2022/02/06 09:26:46;;;;;;;;;;;;;;;25.83;21.43;101518.00;5075230;28;1483;-48
2022/02/06 09:29:11;;;;;;;;;;;;;;;25.46;22.22;101515.28;5071810;28;1901;-42
2022/02/06 09:31:37;;;;;;;;;;;;;;;25.43;22.05;101513.78;5075418;28;1065;-48
2022/02/06 09:36:28;;;;;;;;;;;;;;;25.33;22.39;101514.81;5075981;28;884;-49
2022/02/06 09:38:53;;;;;;;;;;;;;;;25.22;22.44;101521.28;5075568;28;746;-46
2022/02/06 09:41:19;;;;;;;;;;;;;;;25.57;22.08;101519.63;5075864;28;848;-43
2022/02/06 09:43:44;;;;;;;;;;;;;;;25.95;21.35;101510.53;5077697;28;1125;-51
2022/02/06 09:46:10;;;;;;;;;;;;;;;26.11;21.25;101513.34;5076977;28;1064;-48
2022/02/06 09:48:36;;;;;;;;;;;;;;;26.17;21.28;101504.63;5076641;28;1966;-51
2022/02/06 09:51:01;;;;;;;;;;;;;;;26.21;21.36;101507.84;5079074;28;762;-47
2022/02/06 09:53:27;;;;;;;;;;;;;;;26.00;21.42;101500.97;5079269;28;829;-47
2022/02/06 09:55:52;;;;;;;;;;;;;;;26.12;21.44;101508.81;5078733;28;785;-51
2022/02/06 09:58:45;;;;;;;;;;;;;;;25.95;21.45;101503.31;5078763;28;775;-51
2022/02/06 10:01:09;;;;;;;;;;;;;;;26.06;21.42;101499.50;5077655;28;1225;-51
2022/02/06 10:03:44;;;;;;;;;;;;;;;26.13;21.53;101488.94;5078522;28;872;-50
2022/02/06 10:06:20;;;;;;;;;;;;;;;26.20;21.11;101489.13;5077452;28;828;-54
2022/02/06 10:08:45;;;;;;;;;;;;;;;26.33;21.19;101476.09;5078566;28;1969;-49
2022/02/06 10:11:11;;;;;;;;;;;;;;;26.24;21.41;101475.16;5078054;28;805;-47
2022/02/06 10:13:37;;;;;;;;;;;;;;;26.19;21.65;101468.59;5072922;28;780;-46
2022/02/06 10:16:05;;;;;;;;;;;;;;;26.22;21.41;101458.31;5073798;28;985;-49
2022/02/06 10:18:31;;;;;;;;;;;;;;;26.25;21.34;101458.00;5078673;28;774;-48
2022/02/06 10:20:56;;;;;;;;;;;;;;;26.32;21.32;101452.81;5078507;28;824;-45
2022/02/06 10:23:30;;;;;;;;;;;;;;;26.24;21.52;101444.69;5078252;28;840;-53
2022/02/06 10:26:06;;;;;;;;;;;;;;;26.29;21.69;101445.06;5070051;28;862;-47
2022/02/06 10:30:57;;;;;;;;;;;;;;;26.15;21.41;101441.09;5075137;28;1033;-47
2022/02/06 10:33:23;;;;;;;;;;;;;;;26.25;21.35;101444.53;5076919;28;1198;-45
2022/02/06 10:35:49;;;;;;;;;;;;;;;26.29;21.53;101437.78;5078206;28;793;-50
2022/02/06 10:38:20;;;;;;;;;;;;;;;26.31;21.46;101431.41;5077381;28;832;-48
2022/02/06 10:40:46;;;;;;;;;;;;;;;26.39;21.29;101434.16;5077230;28;776;-45
2022/02/06 10:43:11;;;;;;;;;;;;;;;26.23;21.65;101421.41;5076297;28;1081;-51
2022/02/06 10:45:37;;;;;;;;;;;;;;;26.34;21.25;101425.72;5077756;28;977;-51
2022/02/06 10:48:03;;;;;;;;;;;;;;;26.26;21.39;101416.53;5077752;28;1905;-50
2022/02/06 10:50:29;;;;;;;;;;;;;;;26.25;21.41;101417.56;5075220;28;850;-52
2022/02/06 10:53:07;;;;;;;;;;;;;;;26.29;21.47;101424.28;5077754;28;745;-48
2022/02/06 10:55:33;;;;;;;;;;;;;;;26.16;21.72;101416.66;5077601;28;849;-52
2022/02/06 10:57:58;;;;;;;;;;;;;;;26.19;21.76;101415.50;5077861;28;797;-50
2022/02/06 11:00:34;;;;;;;;;;;;;;;26.31;21.66;101420.63;5077734;28;860;-48
2022/02/06 11:03:05;;;;;;;;;;;;;;;26.29;21.57;101415.38;5077316;28;837;-49
2022/02/06 11:05:51;;;;;;;;;;;;;;;26.37;21.75;101407.34;5077078;28;847;-49
2022/02/06 11:08:23;;;;;;;;;;;;;;;26.36;21.51;101407.53;5077485;28;1963;-52
2022/02/06 11:10:49;;;;;;;;;;;;;;;26.33;21.68;101405.13;5077561;28;893;-47
2022/02/06 11:13:15;;;;;;;;;;;;;;;26.32;21.50;101403.41;5075598;28;1167;-50
2022/02/06 11:15:46;;;;;;;;;;;;;;;26.27;21.81;101393.97;5077028;28;839;-54
2022/02/06 11:18:13;;;;;;;;;;;;;;;26.37;21.50;101390.31;5076220;28;1569;-48
2022/02/06 11:20:39;;;;;;;;;;;;;;;26.30;21.46;101384.69;5077198;28;948;-49
2022/02/06 11:23:04;;;;;;;;;;;;;;;26.43;21.54;101383.41;5076943;28;853;-47
2022/02/06 11:25:33;;;;;;;;;;;;;;;26.44;21.26;101377.03;5077178;28;1503;-53
2022/02/06 11:27:59;;;;;;;;;;;;;;;26.53;21.37;101381.44;5076556;28;1898;-48
2022/02/06 11:30:27;;;;;;;;;;;;;;;26.46;21.64;101378.53;5070822;28;852;-49
2022/02/06 11:32:53;;;;;;;;;;;;;;;26.51;21.52;101372.66;5076888;28;1698;-46
2022/02/06 11:35:22;;;;;;;;;;;;;;;26.60;21.03;101363.59;5076662;28;809;-54
2022/02/06 11:46:26;;;;;;;;;;;;;;;26.83;21.19;101348.59;5076496;28;954;-48
2022/02/06 11:48:53;;;;;;;;;;;;;;;26.90;21.11;101341.53;5075960;28;1981;-47
2022/02/06 11:51:19;;;;;;;;;;;;;;;26.93;21.00;101332.25;5075408;28;795;-51
2022/02/06 11:53:44;;;;;;;;;;;;;;;26.97;21.29;101323.66;5075326;28;913;-52
2022/02/06 11:56:28;;;;;;;;;;;;;;;27.00;21.11;101322.47;5071711;28;979;-50
2022/02/06 11:58:53;;;;;;;;;;;;;;;26.86;20.72;101321.31;5075442;28;965;-49
2022/02/06 12:01:19;;;;;;;;;;;;;;;26.83;21.39;101321.63;5070833;28;1445;-48
2022/02/06 12:04:04;;;;;;;;;;;;;;;26.84;21.13;101307.13;5076832;28;774;-50
2022/02/06 12:06:47;;;;;;;;;;;;;;;26.87;21.15;101306.78;5076093;28;833;-49
2022/02/06 12:09:13;;;;;;;;;;;;;;;26.89;21.39;101299.38;5069890;28;1979;-44
2022/02/06 12:11:38;;;;;;;;;;;;;;;26.75;21.27;101299.03;5075991;28;813;-49
2022/02/06 12:14:12;;;;;;;;;;;;;;;26.76;21.23;101294.44;5073803;28;883;-45
2022/02/06 12:16:56;;;;;;;;;;;;;;;26.58;19.90;101308.94;5069497;28;837;-39
2022/02/06 12:19:28;;;;;;;;;;;;;;;25.90;16.97;101296.22;5072563;28;1548;-39
2022/02/06 12:21:54;;;;;;;;;;;;;;;25.73;16.60;101294.44;5072653;28;778;-39
2022/02/06 12:24:42;;;;;;;;;;;;;;;25.68;17.28;101290.38;5076313;28;761;-39
2022/02/06 12:27:34;;;;;;;;;;;;;;;26.05;19.93;101282.13;5075684;28;1890;-38
2022/02/06 12:30:00;;;;;;;;;;;;;;;25.98;19.65;101299.94;5071153;28;1220;-38
2022/02/06 12:32:32;;;;;;;;;;;;;;;25.97;19.59;101276.72;5074843;28;1440;-39
2022/02/06 12:37:43;;;;;;;;;;;;;;;25.58;16.04;101262.69;5064475;28;1070;-41
2022/02/06 12:40:09;;;;;;;;;;;;;;;25.54;16.39;101267.53;5075902;28;856;-41
2022/02/06 12:42:58;;;;;;;;;;;;;;;25.38;14.85;101262.91;5075916;28;794;-40
2022/02/06 12:45:24;;;;;;;;;;;;;;;25.33;14.28;101264.38;5069373;28;1026;-39
2022/02/06 12:47:50;;;;;;;;;;;;;;;25.35;14.09;101262.38;5076424;28;1906;-41
2022/02/06 12:50:19;;;;;;;;;;;;;;;25.27;13.99;101253.25;5069005;28;833;-40
2022/02/06 12:52:44;;;;;;;;;;;;;;;25.34;14.53;101258.81;5076304;28;828;-41
2022/02/06 12:55:10;;;;;;;;;;;;;;;25.70;15.68;101251.66;5075877;28;797;-51
2022/02/06 12:58:02;;;;;;;;;;;;;;;25.42;18.98;101247.28;5075850;28;932;-53
2022/02/06 13:00:31;;;;;;;;;;;;;;;25.89;18.84;101251.41;5065563;28;1727;-53
2022/02/06 13:03:15;;;;;;;;;;;;;;;26.05;19.25;101241.69;5075737;28;876;-50
2022/02/06 13:05:48;;;;;;;;;;;;;;;26.04;19.42;101240.00;5076504;28;857;-46
2022/02/06 13:08:13;;;;;;;;;;;;;;;26.21;19.35;101238.19;5075612;28;1965;-55
2022/02/06 13:10:48;;;;;;;;;;;;;;;26.21;19.66;101238.19;5072857;28;806;-51
2022/02/06 13:13:15;;;;;;;;;;;;;;;26.25;19.87;101244.09;5076002;28;769;-56
2022/02/06 13:15:53;;;;;;;;;;;;;;;26.11;19.78;101243.72;5075455;28;881;-52
2022/02/06 13:18:29;;;;;;;;;;;;;;;26.19;20.12;101240.22;5078464;28;797;-48
2022/02/06 13:21:47;;;;;;;;;;;;;;;26.08;19.82;101230.56;5077619;28;833;-49
2022/02/06 13:23:53;;;;;;;;;;;;;;;25.98;20.34;101221.78;5074672;28;1195;-50
2022/02/06 13:26:34;;;;;;;;;;;;;;;25.96;20.58;101218.44;5078765;28;801;-48
2022/02/06 13:29:55;;;;;;;;;;;;;;;26.00;20.67;101215.22;5079217;28;1902;-44
2022/02/06 13:34:28;;;;;;;;;;;;;;;26.28;20.35;101211.41;5079029;28;831;-47
2022/02/06 13:37:09;;;;;;;;;;;;;;;26.17;20.46;101212.56;5075222;28;807;-49
2022/02/06 13:39:38;;;;;;;;;;;;;;;26.26;20.41;101214.25;5078823;28;776;-50
2022/02/06 13:42:11;;;;;;;;;;;;;;;26.23;20.60;101216.44;5072929;28;1063;-49
2022/02/06 13:44:36;;;;;;;;;;;;;;;26.32;20.63;101217.31;5071429;28;956;-49
2022/02/06 13:47:03;;;;;;;;;;;;;;;26.21;20.57;101211.22;5079418;28;837;-48
2022/02/06 13:49:37;;;;;;;;;;;;;;;26.21;20.74;101215.78;5078524;28;781;-46
2022/02/06 13:52:06;;;;;;;;;;;;;;;26.27;20.62;101209.72;5077635;28;824;-44
2022/02/06 13:54:32;;;;;;;;;;;;;;;26.27;20.76;101207.03;5078833;28;817;-51
2022/02/06 13:56:59;;;;;;;;;;;;;;;26.23;20.86;101211.06;5076866;28;968;-44
2022/02/06 13:59:25;;;;;;;;;;;;;;;26.23;21.11;101211.91;5074586;28;839;-52
2022/02/06 14:01:52;;;;;;;;;;;;;;;26.17;21.06;101202.59;5073700;28;1230;-50
2022/02/06 14:04:29;;;;;;;;;;;;;;;26.19;20.83;101194.38;5078782;28;895;-49
2022/02/06 14:07:04;;;;;;;;;;;;;;;26.12;20.88;101199.59;5078140;28;828;-41
2022/02/06 14:09:32;;;;;;;;;;;;;;;26.16;20.94;101200.09;5078290;28;740;-48
2022/02/06 14:12:01;;;;;;;;;;;;;;;26.20;20.77;101196.06;5078099;28;1716;-44
2022/02/06 14:14:26;;;;;;;;;;;;;;;26.20;20.90;101208.69;5072758;28;894;-48
2022/02/06 14:16:54;;;;;;;;;;;;;;;26.18;20.88;101195.38;5075400;28;852;-47
2022/02/06 14:19:43;;;;;;;;;;;;;;;26.15;21.05;101196.56;5077411;28;825;-50
2022/02/06 14:22:09;;;;;;;;;;;;;;;26.12;21.00;101204.13;5077600;28;1182;-46
2022/02/06 14:24:47;;;;;;;;;;;;;;;26.11;21.06;101189.81;5077969;28;833;-44
2022/02/06 14:27:13;;;;;;;;;;;;;;;26.10;21.38;101189.97;5075065;28;1898;-41
2022/02/06 14:29:38;;;;;;;;;;;;;;;26.13;21.25;101195.03;5076681;28;892;-45
2022/02/06 14:32:20;;;;;;;;;;;;;;;26.12;21.25;101198.75;5076900;28;1119;-41
2022/02/06 14:35:16;;;;;;;;;;;;;;;26.14;21.01;101205.63;5078002;28;948;-39
2022/02/06 14:37:51;;;;;;;;;;;;;;;26.13;21.31;101200.41;5064700;28;1175;-45
2022/02/06 14:40:35;;;;;;;;;;;;;;;26.22;20.94;101201.28;5065471;28;824;-42
2022/02/06 14:43:11;;;;;;;;;;;;;;;26.15;21.28;101193.88;5077912;28;755;-40
2022/02/06 14:45:37;;;;;;;;;;;;;;;26.17;21.13;101193.69;5077836;28;937;-42
2022/02/06 14:48:02;;;;;;;;;;;;;;;26.11;21.18;101188.97;5077650;28;1906;-39
2022/02/06 14:50:28;;;;;;;;;;;;;;;26.17;21.13;101180.22;5077816;28;826;-43
2022/02/06 14:52:53;;;;;;;;;;;;;;;26.12;21.12;101174.47;5074661;28;856;-40
2022/02/06 14:55:18;;;;;;;;;;;;;;;26.12;21.39;101172.63;5077476;28;865;-48
2022/02/06 14:57:44;;;;;;;;;;;;;;;26.21;21.18;101178.84;5077599;28;833;-40
2022/02/06 15:00:10;;;;;;;;;;;;;;;26.15;21.11;101182.22;5077388;28;933;-40
2022/02/06 15:02:36;;;;;;;;;;;;;;;26.01;21.42;101179.16;5077065;28;1499;-44
2022/02/06 15:05:01;;;;;;;;;;;;;;;26.04;21.59;101178.84;5075722;28;1218;-41
2022/02/06 15:07:28;;;;;;;;;;;;;;;26.08;21.31;101176.66;5076665;28;1902;-40
2022/02/06 15:09:54;;;;;;;;;;;;;;;25.99;21.40;101167.69;5077523;28;804;-40
2022/02/06 15:12:19;;;;;;;;;;;;;;;26.02;21.46;101164.69;5077130;28;889;-42
2022/02/06 15:14:45;;;;;;;;;;;;;;;25.94;21.47;101161.13;5076067;28;973;-38
2022/02/06 15:17:11;;;;;;;;;;;;;;;25.94;21.52;101161.13;5076724;28;856;-43
2022/02/06 15:19:37;;;;;;;;;;;;;;;25.94;21.47;101166.53;5073531;28;856;-38
2022/02/06 15:22:03;;;;;;;;;;;;;;;25.83;21.73;101173.91;5077187;28;806;-40
2022/02/06 15:24:28;;;;;;;;;;;;;;;25.81;21.86;101175.91;5077373;28;963;-42